createdAt,value
2018-07-15T00:00:10.774Z,1013.50
2018-07-15T00:01:10.792Z,1013.47
2018-07-15T00:02:10.812Z,1013.49
2018-07-15T00:03:10.837Z,1013.51
2018-07-15T00:04:10.857Z,1013.51
2018-07-15T00:05:10.879Z,1013.54
2018-07-15T00:06:10.902Z,1013.55
2018-07-15T00:07:10.925Z,1013.50
2018-07-15T00:08:10.949Z,1013.53
2018-07-15T00:09:10.972Z,1013.52
2018-07-15T00:10:10.993Z,1013.52
2018-07-15T00:11:11.020Z,1013.58
2018-07-15T00:12:11.036Z,1013.56
2018-07-15T00:13:11.060Z,1013.53
2018-07-15T00:14:11.085Z,1013.57
2018-07-15T00:15:11.104Z,1013.56
2018-07-15T00:16:11.128Z,1013.53
2018-07-15T00:17:11.148Z,1013.55
2018-07-15T00:18:11.171Z,1013.55
2018-07-15T00:19:11.196Z,1013.53
2018-07-15T00:20:11.217Z,1013.55
2018-07-15T00:21:11.240Z,1013.51
2018-07-15T00:22:11.264Z,1013.53
2018-07-15T00:23:11.282Z,1013.56
2018-07-15T00:24:11.303Z,1013.50
2018-07-15T00:25:11.327Z,1013.51
2018-07-15T00:26:11.348Z,1013.54
2018-07-15T00:27:11.374Z,1013.53
2018-07-15T00:28:11.394Z,1013.52
2018-07-15T00:29:11.416Z,1013.47
2018-07-15T00:30:11.438Z,1013.49
2018-07-15T00:31:11.462Z,1013.45
2018-07-15T00:32:11.484Z,1013.44
2018-07-15T00:33:11.508Z,1013.42
2018-07-15T00:34:11.527Z,1013.48
2018-07-15T00:35:11.553Z,1013.43
2018-07-15T00:36:11.571Z,1013.44
2018-07-15T00:37:11.597Z,1013.47
2018-07-15T00:38:11.618Z,1013.45
2018-07-15T00:39:11.641Z,1013.44
2018-07-15T00:40:11.661Z,1013.46
2018-07-15T00:41:11.695Z,1013.47
2018-07-15T00:42:11.705Z,1013.46
2018-07-15T00:43:11.734Z,1013.47
2018-07-15T00:44:11.749Z,1013.48
2018-07-15T00:45:11.774Z,1013.50
2018-07-15T00:46:11.795Z,1013.48
2018-07-15T00:47:11.816Z,1013.49
2018-07-15T00:48:11.841Z,1013.51
2018-07-15T00:49:11.859Z,1013.50
2018-07-15T00:50:11.887Z,1013.49
2018-07-15T00:51:11.906Z,1013.50
2018-07-15T00:52:11.928Z,1013.51
2018-07-15T00:53:11.951Z,1013.47
2018-07-15T00:54:11.972Z,1013.49
2018-07-15T00:55:12.062Z,1013.49
2018-07-15T00:56:12.016Z,1013.49
2018-07-15T00:57:12.038Z,1013.52
2018-07-15T00:58:12.064Z,1013.47
2018-07-15T00:59:12.082Z,1013.47
2018-07-15T01:00:12.103Z,1013.47
2018-07-15T01:01:12.127Z,1013.45
2018-07-15T01:02:12.148Z,1013.44
2018-07-15T01:03:12.170Z,1013.42
2018-07-15T01:04:12.193Z,1013.46
2018-07-15T01:05:12.214Z,1013.43
2018-07-15T01:06:12.239Z,1013.44
2018-07-15T01:07:12.261Z,1013.46
2018-07-15T01:08:12.283Z,1013.45
2018-07-15T01:09:12.303Z,1013.46
2018-07-15T01:10:12.325Z,1013.45
2018-07-15T01:11:12.348Z,1013.45
2018-07-15T01:12:12.370Z,1013.42
2018-07-15T01:13:12.393Z,1013.41
2018-07-15T01:14:12.414Z,1013.40
2018-07-15T01:15:12.433Z,1013.40
2018-07-15T01:16:12.455Z,1013.42
2018-07-15T01:17:12.480Z,1013.39
2018-07-15T01:18:12.499Z,1013.38
2018-07-15T01:19:12.525Z,1013.38
2018-07-15T01:20:12.546Z,1013.40
2018-07-15T01:21:12.565Z,1013.37
2018-07-15T01:22:12.590Z,1013.36
2018-07-15T01:23:12.612Z,1013.35
2018-07-15T01:24:12.630Z,1013.36
2018-07-15T01:25:12.653Z,1013.38
2018-07-15T01:26:12.678Z,1013.34
2018-07-15T01:27:12.700Z,1013.35
2018-07-15T01:28:12.718Z,1013.35
2018-07-15T01:29:12.742Z,1013.35
2018-07-15T01:30:12.766Z,1013.31
2018-07-15T01:31:12.788Z,1013.28
2018-07-15T01:32:12.808Z,1013.29
2018-07-15T01:33:12.840Z,1013.29
2018-07-15T01:34:12.850Z,1013.31
2018-07-15T01:35:12.875Z,1013.29
2018-07-15T01:36:12.893Z,1013.32
2018-07-15T01:37:12.915Z,1013.32
2018-07-15T01:38:12.940Z,1013.29
2018-07-15T01:39:12.962Z,1013.32
2018-07-15T01:40:12.983Z,1013.29
2018-07-15T01:41:13.004Z,1013.31
2018-07-15T01:42:13.028Z,1013.33
2018-07-15T01:43:13.048Z,1013.29
2018-07-15T01:44:13.070Z,1013.30
2018-07-15T01:45:13.091Z,1013.32
2018-07-15T01:46:13.114Z,1013.28
2018-07-15T01:47:13.132Z,1013.28
2018-07-15T01:48:13.209Z,1013.27
2018-07-15T01:49:13.178Z,1013.29
2018-07-15T01:50:13.197Z,1013.24
2018-07-15T01:51:13.223Z,1013.23
2018-07-15T01:52:13.242Z,1013.26
2018-07-15T01:53:13.262Z,1013.25
2018-07-15T01:54:13.287Z,1013.25
2018-07-15T01:55:13.309Z,1013.25
2018-07-15T01:56:13.329Z,1013.28
2018-07-15T01:57:13.352Z,1013.25
2018-07-15T01:58:13.372Z,1013.25
2018-07-15T01:59:13.392Z,1013.18
2018-07-15T02:00:13.419Z,1013.23
2018-07-15T02:01:13.435Z,1013.20
2018-07-15T02:02:13.456Z,1013.19
2018-07-15T02:03:13.482Z,1013.20
2018-07-15T02:04:13.499Z,1013.19
2018-07-15T02:05:13.521Z,1013.21
2018-07-15T02:06:13.543Z,1013.19
2018-07-15T02:07:13.565Z,1013.21
2018-07-15T02:08:13.585Z,1013.18
2018-07-15T02:09:13.609Z,1013.23
2018-07-15T02:10:13.633Z,1013.22
2018-07-15T02:11:13.652Z,1013.21
2018-07-15T02:12:13.673Z,1013.21
2018-07-15T02:13:13.693Z,1013.19
2018-07-15T02:14:13.719Z,1013.21
2018-07-15T02:15:13.737Z,1013.20
2018-07-15T02:16:13.761Z,1013.23
2018-07-15T02:17:13.780Z,1013.21
2018-07-15T02:18:13.805Z,1013.19
2018-07-15T02:19:13.824Z,1013.20
2018-07-15T02:20:13.845Z,1013.21
2018-07-15T02:21:14.119Z,1013.18
2018-07-15T02:22:13.888Z,1013.20
2018-07-15T02:23:13.913Z,1013.20
2018-07-15T02:24:13.931Z,1013.20
2018-07-15T02:25:13.952Z,1013.20
2018-07-15T02:26:13.973Z,1013.20
2018-07-15T02:27:13.999Z,1013.19
2018-07-15T02:28:14.022Z,1013.19
2018-07-15T02:29:14.039Z,1013.19
2018-07-15T02:30:14.062Z,1013.19
2018-07-15T02:31:14.085Z,1013.21
2018-07-15T02:32:14.102Z,1013.14
2018-07-15T02:33:14.127Z,1013.15
2018-07-15T02:34:14.149Z,1013.13
2018-07-15T02:35:14.171Z,1013.15
2018-07-15T02:36:14.193Z,1013.13
2018-07-15T02:37:14.216Z,1013.17
2018-07-15T02:38:14.238Z,1013.13
2018-07-15T02:39:14.256Z,1013.10
2018-07-15T02:40:14.275Z,1013.16
2018-07-15T02:41:14.296Z,1013.13
2018-07-15T02:42:14.321Z,1013.12
2018-07-15T02:43:14.342Z,1013.15
2018-07-15T02:44:14.363Z,1013.14
2018-07-15T02:45:14.385Z,1013.15
2018-07-15T02:46:14.404Z,1013.11
2018-07-15T02:47:14.428Z,1013.12
2018-07-15T02:48:14.446Z,1013.14
2018-07-15T02:49:14.468Z,1013.11
2018-07-15T02:50:14.488Z,1013.13
2018-07-15T02:51:14.509Z,1013.12
2018-07-15T02:52:14.532Z,1013.10
2018-07-15T02:53:14.555Z,1013.14
2018-07-15T02:54:14.578Z,1013.11
2018-07-15T02:55:14.596Z,1013.10
2018-07-15T02:56:14.619Z,1013.11
2018-07-15T02:57:14.639Z,1013.11
2018-07-15T02:58:14.660Z,1013.09
2018-07-15T02:59:14.682Z,1013.10
2018-07-15T03:00:14.702Z,1013.12
2018-07-15T03:01:14.725Z,1013.12
2018-07-15T03:02:14.743Z,1013.12
2018-07-15T03:03:14.767Z,1013.10
2018-07-15T03:04:14.788Z,1013.08
2018-07-15T03:05:14.810Z,1013.07
2018-07-15T03:06:14.832Z,1013.04
2018-07-15T03:07:14.852Z,1013.03
2018-07-15T03:08:14.873Z,1013.04
2018-07-15T03:09:14.891Z,1012.99
2018-07-15T03:10:14.912Z,1012.99
2018-07-15T03:11:14.937Z,1012.97
2018-07-15T03:12:14.955Z,1012.97
2018-07-15T03:13:14.978Z,1012.98
2018-07-15T03:14:14.998Z,1012.96
2018-07-15T03:15:15.021Z,1012.94
2018-07-15T03:16:15.042Z,1012.97
2018-07-15T03:17:15.139Z,1012.94
2018-07-15T03:18:15.082Z,1012.98
2018-07-15T03:19:15.106Z,1012.95
2018-07-15T03:20:15.124Z,1012.95
2018-07-15T03:21:15.146Z,1012.91
2018-07-15T03:22:15.166Z,1012.93
2018-07-15T03:23:15.190Z,1012.90
2018-07-15T03:24:15.207Z,1012.87
2018-07-15T03:25:15.233Z,1012.84
2018-07-15T03:26:15.253Z,1012.82
2018-07-15T03:27:15.275Z,1012.88
2018-07-15T03:28:15.294Z,1012.84
2018-07-15T03:29:15.313Z,1012.89
2018-07-15T03:30:15.335Z,1012.86
2018-07-15T03:31:15.359Z,1012.87
2018-07-15T03:32:15.385Z,1012.88
2018-07-15T03:33:15.397Z,1012.87
2018-07-15T03:34:15.567Z,1012.88
2018-07-15T03:35:15.443Z,1012.89
2018-07-15T03:36:15.466Z,1012.90
2018-07-15T03:37:15.485Z,1012.85
2018-07-15T03:38:15.507Z,1012.82
2018-07-15T03:39:15.526Z,1012.81
2018-07-15T03:40:15.546Z,1012.81
2018-07-15T03:41:15.570Z,1012.83
2018-07-15T03:42:15.586Z,1012.86
2018-07-15T03:43:15.612Z,1012.81
2018-07-15T03:44:15.631Z,1012.81
2018-07-15T03:45:15.653Z,1012.82
2018-07-15T03:46:15.673Z,1012.85
2018-07-15T03:47:15.693Z,1012.82
2018-07-15T03:48:15.713Z,1012.84
2018-07-15T03:49:15.736Z,1012.85
2018-07-15T03:50:15.758Z,1012.86
2018-07-15T03:51:15.776Z,1012.83
2018-07-15T03:52:15.796Z,1012.83
2018-07-15T03:53:15.820Z,1012.86
2018-07-15T03:54:15.838Z,1012.81
2018-07-15T03:55:15.861Z,1012.80
2018-07-15T03:56:15.884Z,1012.77
2018-07-15T03:57:15.904Z,1012.82
2018-07-15T03:58:15.926Z,1012.79
2018-07-15T03:59:15.943Z,1012.86
2018-07-15T04:00:15.968Z,1012.83
2018-07-15T04:01:15.987Z,1012.83
2018-07-15T04:02:16.010Z,1012.86
2018-07-15T04:03:16.030Z,1012.83
2018-07-15T04:04:16.050Z,1012.83
2018-07-15T04:05:16.068Z,1012.83
2018-07-15T04:06:16.090Z,1012.85
2018-07-15T04:07:16.111Z,1012.90
2018-07-15T04:08:16.131Z,1012.86
2018-07-15T04:09:16.154Z,1012.88
2018-07-15T04:10:16.173Z,1012.85
2018-07-15T04:11:16.197Z,1012.91
2018-07-15T04:12:16.215Z,1012.87
2018-07-15T04:13:16.237Z,1012.90
2018-07-15T04:14:16.258Z,1012.89
2018-07-15T04:15:16.278Z,1012.90
2018-07-15T04:16:16.300Z,1012.89
2018-07-15T04:17:16.321Z,1012.91
2018-07-15T04:18:16.342Z,1012.86
2018-07-15T04:19:16.361Z,1012.87
2018-07-15T04:20:16.384Z,1012.88
2018-07-15T04:21:16.403Z,1012.84
2018-07-15T04:22:16.426Z,1012.81
2018-07-15T04:23:16.445Z,1012.84
2018-07-15T04:24:16.466Z,1012.81
2018-07-15T04:25:16.486Z,1012.81
2018-07-15T04:26:16.511Z,1012.82
2018-07-15T04:27:16.532Z,1012.82
2018-07-15T04:28:16.592Z,1012.80
2018-07-15T04:29:16.569Z,1012.84
2018-07-15T04:30:16.591Z,1012.83
2018-07-15T04:31:16.612Z,1012.81
2018-07-15T04:32:16.636Z,1012.79
2018-07-15T04:33:16.657Z,1012.82
2018-07-15T04:34:16.678Z,1012.81
2018-07-15T04:35:16.701Z,1012.81
2018-07-15T04:36:16.716Z,1012.77
2018-07-15T04:37:16.742Z,1012.77
2018-07-15T04:38:16.761Z,1012.82
2018-07-15T04:39:16.782Z,1012.81
2018-07-15T04:40:16.802Z,1012.83
2018-07-15T04:41:16.824Z,1012.83
2018-07-15T04:42:16.845Z,1012.84
2018-07-15T04:43:16.866Z,1012.84
2018-07-15T04:44:16.884Z,1012.86
2018-07-15T04:45:16.908Z,1012.86
2018-07-15T04:46:16.929Z,1012.85
2018-07-15T04:47:16.948Z,1012.82
2018-07-15T04:48:16.970Z,1012.87
2018-07-15T04:49:16.992Z,1012.87
2018-07-15T04:50:17.015Z,1012.85
2018-07-15T04:51:17.030Z,1012.89
2018-07-15T04:52:17.050Z,1012.87
2018-07-15T04:53:17.072Z,1012.87
2018-07-15T04:54:17.096Z,1012.82
2018-07-15T04:55:17.115Z,1012.84
2018-07-15T04:56:17.134Z,1012.82
2018-07-15T04:57:17.156Z,1012.83
2018-07-15T04:58:17.177Z,1012.82
2018-07-15T04:59:17.203Z,1012.82
2018-07-15T05:00:17.220Z,1012.82
2018-07-15T05:01:17.241Z,1012.78
2018-07-15T05:02:17.261Z,1012.80
2018-07-15T05:03:17.284Z,1012.80
2018-07-15T05:04:17.303Z,1012.79
2018-07-15T05:05:17.324Z,1012.76
2018-07-15T05:06:17.348Z,1012.78
2018-07-15T05:07:17.366Z,1012.79
2018-07-15T05:08:17.386Z,1012.78
2018-07-15T05:09:17.407Z,1012.78
2018-07-15T05:10:17.479Z,1012.78
2018-07-15T05:11:17.520Z,1012.77
2018-07-15T05:12:17.482Z,1012.76
2018-07-15T05:13:17.491Z,1012.74
2018-07-15T05:14:17.518Z,1012.76
2018-07-15T05:15:17.535Z,1012.73
2018-07-15T05:16:17.559Z,1012.73
2018-07-15T05:17:17.578Z,1012.75
2018-07-15T05:18:17.639Z,1012.81
2018-07-15T05:19:17.619Z,1012.85
2018-07-15T05:20:17.639Z,1012.89
2018-07-15T05:21:17.663Z,1012.87
2018-07-15T05:22:17.685Z,1012.91
2018-07-15T05:23:17.707Z,1012.93
2018-07-15T05:24:17.723Z,1012.95
2018-07-15T05:25:17.749Z,1012.91
2018-07-15T05:26:17.769Z,1012.91
2018-07-15T05:27:17.790Z,1012.93
2018-07-15T05:28:17.810Z,1012.94
2018-07-15T05:29:17.833Z,1012.92
2018-07-15T05:30:17.851Z,1012.93
2018-07-15T05:31:17.875Z,1012.94
2018-07-15T05:32:17.895Z,1012.97
2018-07-15T05:33:17.914Z,1012.95
2018-07-15T05:34:17.937Z,1012.94
2018-07-15T05:35:17.959Z,1012.98
2018-07-15T05:36:17.981Z,1012.96
2018-07-15T05:37:18.003Z,1012.96
2018-07-15T05:38:18.024Z,1012.95
2018-07-15T05:39:18.042Z,1012.95
2018-07-15T05:40:18.066Z,1012.96
2018-07-15T05:41:18.084Z,1012.99
2018-07-15T05:42:18.107Z,1012.98
2018-07-15T05:43:18.131Z,1012.99
2018-07-15T05:44:18.197Z,1013.01
2018-07-15T05:45:18.177Z,1013.04
2018-07-15T05:46:18.194Z,1013.05
2018-07-15T05:47:18.215Z,1013.06
2018-07-15T05:48:18.234Z,1013.05
2018-07-15T05:49:18.257Z,1013.04
2018-07-15T05:50:18.284Z,1013.04
2018-07-15T05:51:18.302Z,1013.09
2018-07-15T05:52:18.324Z,1013.06
2018-07-15T05:53:18.342Z,1013.11
2018-07-15T05:54:18.367Z,1013.09
2018-07-15T05:55:18.389Z,1013.09
2018-07-15T05:56:18.414Z,1013.16
2018-07-15T05:57:18.429Z,1013.15
2018-07-15T05:58:18.456Z,1013.17
2018-07-15T05:59:18.474Z,1013.13
2018-07-15T06:00:18.499Z,1013.14
2018-07-15T06:01:18.518Z,1013.12
2018-07-15T06:02:18.545Z,1013.17
2018-07-15T06:03:18.572Z,1013.16
2018-07-15T06:04:18.589Z,1013.18
2018-07-15T06:05:18.611Z,1013.15
2018-07-15T06:06:18.635Z,1013.20
2018-07-15T06:07:18.661Z,1013.15
2018-07-15T06:08:18.679Z,1013.18
2018-07-15T06:09:18.703Z,1013.16
2018-07-15T06:10:18.728Z,1013.14
2018-07-15T06:11:18.753Z,1013.17
2018-07-15T06:12:18.772Z,1013.17
2018-07-15T06:13:18.799Z,1013.13
2018-07-15T06:14:18.822Z,1013.16
2018-07-15T06:15:18.844Z,1013.19
2018-07-15T06:16:18.866Z,1013.18
2018-07-15T06:17:18.893Z,1013.22
2018-07-15T06:18:18.916Z,1013.19
2018-07-15T06:19:18.940Z,1013.19
2018-07-15T06:20:18.965Z,1013.18
2018-07-15T06:21:18.988Z,1013.16
2018-07-15T06:22:19.014Z,1013.14
2018-07-15T06:23:19.041Z,1013.14
2018-07-15T06:24:19.062Z,1013.13
2018-07-15T06:25:19.088Z,1013.13
2018-07-15T06:26:19.116Z,1013.16
2018-07-15T06:27:19.139Z,1013.11
2018-07-15T06:28:19.160Z,1013.14
2018-07-15T06:29:19.186Z,1013.11
2018-07-15T06:30:19.215Z,1013.12
2018-07-15T06:31:19.238Z,1013.11
2018-07-15T06:32:19.262Z,1013.09
2018-07-15T06:33:19.286Z,1013.10
2018-07-15T06:34:19.313Z,1013.12
2018-07-15T06:35:19.336Z,1013.17
2018-07-15T06:36:19.360Z,1013.19
2018-07-15T06:37:19.386Z,1013.10
2018-07-15T06:38:19.414Z,1013.13
2018-07-15T06:39:19.440Z,1013.14
2018-07-15T06:40:19.462Z,1013.14
2018-07-15T06:41:19.488Z,1013.10
2018-07-15T06:42:19.515Z,1013.10
2018-07-15T06:43:19.540Z,1013.13
2018-07-15T06:44:19.568Z,1013.14
2018-07-15T06:45:19.591Z,1013.09
2018-07-15T06:46:19.619Z,1013.11
2018-07-15T06:47:19.643Z,1013.11
2018-07-15T06:48:19.667Z,1013.09
2018-07-15T06:49:19.792Z,1013.10
2018-07-15T06:50:19.723Z,1013.09
2018-07-15T06:51:19.746Z,1013.06
2018-07-15T06:52:19.773Z,1013.06
2018-07-15T06:53:19.799Z,1013.10
2018-07-15T06:54:19.821Z,1013.08
2018-07-15T06:55:19.847Z,1013.06
2018-07-15T06:56:19.872Z,1013.06
2018-07-15T06:57:19.899Z,1013.05
2018-07-15T06:58:19.921Z,1013.02
2018-07-15T06:59:19.947Z,1013.02
2018-07-15T07:00:19.975Z,1013.06
2018-07-15T07:01:19.998Z,1013.07
2018-07-15T07:02:20.022Z,1013.12
2018-07-15T07:03:20.051Z,1013.08
2018-07-15T07:04:20.070Z,1013.09
2018-07-15T07:05:20.095Z,1013.12
2018-07-15T07:06:20.122Z,1013.13
2018-07-15T07:07:20.170Z,1013.10
2018-07-15T07:08:20.168Z,1013.08
2018-07-15T07:09:20.193Z,1013.09
2018-07-15T07:10:20.221Z,1013.10
2018-07-15T07:11:20.245Z,1013.09
2018-07-15T07:12:20.280Z,1013.14
2018-07-15T07:13:20.292Z,1013.15
2018-07-15T07:14:20.460Z,1013.14
2018-07-15T07:15:20.344Z,1013.17
2018-07-15T07:16:20.370Z,1013.15
2018-07-15T07:17:20.395Z,1013.17
2018-07-15T07:18:20.420Z,1013.21
2018-07-15T07:19:20.451Z,1013.19
2018-07-15T07:20:20.471Z,1013.20
2018-07-15T07:21:20.495Z,1013.21
2018-07-15T07:22:20.524Z,1013.18
2018-07-15T07:23:20.546Z,1013.18
2018-07-15T07:24:20.573Z,1013.19
2018-07-15T07:25:20.600Z,1013.22
2018-07-15T07:26:20.624Z,1013.22
2018-07-15T07:27:20.653Z,1013.25
2018-07-15T07:28:20.678Z,1013.27
2018-07-15T07:29:20.705Z,1013.24
2018-07-15T07:30:20.730Z,1013.29
2018-07-15T07:31:20.755Z,1013.30
2018-07-15T07:32:20.780Z,1013.28
2018-07-15T07:33:20.810Z,1013.28
2018-07-15T07:34:20.833Z,1013.28
2018-07-15T07:35:20.924Z,1013.26
2018-07-15T07:36:20.889Z,1013.28
2018-07-15T07:37:20.914Z,1013.23
2018-07-15T07:38:20.940Z,1013.22
2018-07-15T07:39:20.966Z,1013.21
2018-07-15T07:40:20.995Z,1013.23
2018-07-15T07:41:21.133Z,1013.19
2018-07-15T07:42:21.049Z,1013.18
2018-07-15T07:43:21.075Z,1013.20
2018-07-15T07:44:21.099Z,1013.19
2018-07-15T07:45:21.128Z,1013.16
2018-07-15T07:46:21.153Z,1013.14
2018-07-15T07:47:21.181Z,1013.15
2018-07-15T07:48:21.208Z,1013.13
2018-07-15T07:49:21.235Z,1013.17
2018-07-15T07:50:21.260Z,1013.13
2018-07-15T07:51:21.288Z,1013.20
2018-07-15T07:52:21.312Z,1013.20
2018-07-15T07:53:21.377Z,1013.19
2018-07-15T07:54:21.365Z,1013.12
2018-07-15T07:55:21.389Z,1013.16
2018-07-15T07:56:21.416Z,1013.14
2018-07-15T07:57:21.444Z,1013.16
2018-07-15T07:58:21.470Z,1013.18
2018-07-15T07:59:21.496Z,1013.17
2018-07-15T08:00:21.523Z,1013.16
2018-07-15T08:01:21.548Z,1013.18
2018-07-15T08:02:21.573Z,1013.18
2018-07-15T08:03:21.603Z,1013.15
2018-07-15T08:04:21.628Z,1013.11
2018-07-15T08:05:21.649Z,1013.10
2018-07-15T08:06:21.678Z,1013.14
2018-07-15T08:07:21.705Z,1013.15
2018-07-15T08:08:21.730Z,1013.13
2018-07-15T08:09:21.752Z,1013.17
2018-07-15T08:10:21.778Z,1013.14
2018-07-15T08:11:21.804Z,1013.17
2018-07-15T08:12:21.832Z,1013.15
2018-07-15T08:13:21.855Z,1013.16
2018-07-15T08:14:21.881Z,1013.13
2018-07-15T08:15:21.910Z,1013.16
2018-07-15T08:16:21.933Z,1013.21
2018-07-15T08:17:21.957Z,1013.19
2018-07-15T08:18:21.983Z,1013.15
2018-07-15T08:19:22.009Z,1013.17
2018-07-15T08:20:22.036Z,1013.15
2018-07-15T08:21:22.061Z,1013.12
2018-07-15T08:22:22.088Z,1013.08
2018-07-15T08:23:22.117Z,1013.13
2018-07-15T08:24:22.136Z,1013.14
2018-07-15T08:25:22.166Z,1013.15
2018-07-15T08:26:22.190Z,1013.13
2018-07-15T08:27:22.215Z,1013.11
2018-07-15T08:28:22.372Z,1013.13
2018-07-15T08:29:22.264Z,1013.13
2018-07-15T08:30:22.292Z,1013.10
2018-07-15T08:31:22.320Z,1013.18
2018-07-15T08:32:22.341Z,1013.16
2018-07-15T08:33:22.367Z,1013.13
2018-07-15T08:34:22.399Z,1013.15
2018-07-15T08:35:22.421Z,1013.15
2018-07-15T08:36:22.444Z,1013.15
2018-07-15T08:37:22.471Z,1013.10
2018-07-15T08:38:22.497Z,1013.11
2018-07-15T08:39:22.520Z,1013.10
2018-07-15T08:40:22.547Z,1013.08
2018-07-15T08:41:22.573Z,1013.07
2018-07-15T08:42:22.598Z,1013.08
2018-07-15T08:43:22.626Z,1013.10
2018-07-15T08:44:22.650Z,1013.10
2018-07-15T08:45:22.684Z,1013.11
2018-07-15T08:46:22.701Z,1013.08
2018-07-15T08:47:22.730Z,1013.06
2018-07-15T08:48:22.754Z,1013.09
2018-07-15T08:49:22.779Z,1013.13
2018-07-15T08:50:22.807Z,1013.09
2018-07-15T08:51:22.832Z,1013.10
2018-07-15T08:52:22.858Z,1013.07
2018-07-15T08:53:22.884Z,1013.13
2018-07-15T08:54:22.908Z,1013.14
2018-07-15T08:55:22.936Z,1013.17
2018-07-15T08:56:22.957Z,1013.13
2018-07-15T08:57:22.993Z,1013.12
2018-07-15T08:58:23.019Z,1013.13
2018-07-15T08:59:23.039Z,1013.16
2018-07-15T09:00:23.064Z,1013.11
2018-07-15T09:01:23.091Z,1013.09
2018-07-15T09:02:23.116Z,1013.14
2018-07-15T09:03:23.155Z,1013.14
2018-07-15T09:04:23.166Z,1013.08
2018-07-15T09:05:23.191Z,1013.07
2018-07-15T09:06:23.220Z,1013.03
2018-07-15T09:07:23.243Z,1013.05
2018-07-15T09:08:23.268Z,1013.05
2018-07-15T09:09:23.294Z,1013.04
2018-07-15T09:10:23.322Z,1013.03
2018-07-15T09:11:23.349Z,1013.06
2018-07-15T09:12:23.372Z,1013.06
2018-07-15T09:13:23.403Z,1013.04
2018-07-15T09:14:23.428Z,1013.05
2018-07-15T09:15:23.454Z,1013.06
2018-07-15T09:16:23.478Z,1013.01
2018-07-15T09:17:23.513Z,1012.95
2018-07-15T09:18:23.619Z,1013.02
2018-07-15T09:19:23.558Z,1013.02
2018-07-15T09:20:23.582Z,1013.01
2018-07-15T09:21:23.610Z,1013.00
2018-07-15T09:22:23.640Z,1013.00
2018-07-15T09:23:23.660Z,1012.95
2018-07-15T09:24:23.687Z,1012.98
2018-07-15T09:25:23.713Z,1012.94
2018-07-15T09:26:23.742Z,1012.95
2018-07-15T09:27:23.767Z,1012.93
2018-07-15T09:28:23.792Z,1012.92
2018-07-15T09:29:23.819Z,1012.91
2018-07-15T09:30:23.845Z,1012.93
2018-07-15T09:31:23.868Z,1012.93
2018-07-15T09:32:23.893Z,1012.87
2018-07-15T09:33:23.919Z,1012.93
2018-07-15T09:34:23.947Z,1012.87
2018-07-15T09:35:24.026Z,1012.89
2018-07-15T09:36:24.000Z,1012.93
2018-07-15T09:37:24.028Z,1012.88
2018-07-15T09:38:24.052Z,1012.91
2018-07-15T09:39:24.080Z,1012.88
2018-07-15T09:40:24.106Z,1012.86
2018-07-15T09:41:24.135Z,1012.93
2018-07-15T09:42:24.164Z,1012.92
2018-07-15T09:43:24.181Z,1012.90
2018-07-15T09:44:24.208Z,1012.94
2018-07-15T09:45:24.236Z,1012.91
2018-07-15T09:46:24.259Z,1012.90
2018-07-15T09:47:24.286Z,1012.89
2018-07-15T09:48:24.313Z,1012.88
2018-07-15T09:49:24.340Z,1012.89
2018-07-15T09:50:24.367Z,1012.90
2018-07-15T09:51:24.393Z,1012.94
2018-07-15T09:52:24.416Z,1012.89
2018-07-15T09:53:24.493Z,1012.94
2018-07-15T09:54:24.468Z,1012.93
2018-07-15T09:55:24.496Z,1012.94
2018-07-15T09:56:24.524Z,1012.92
2018-07-15T09:57:24.547Z,1012.90
2018-07-15T09:58:24.691Z,1012.90
2018-07-15T09:59:24.602Z,1012.92
2018-07-15T10:00:24.628Z,1012.87
2018-07-15T10:01:24.655Z,1012.93
2018-07-15T10:02:24.678Z,1012.85
2018-07-15T10:03:24.705Z,1012.85
2018-07-15T10:04:24.731Z,1012.85
2018-07-15T10:05:24.757Z,1012.83
2018-07-15T10:06:24.783Z,1012.83
2018-07-15T10:07:24.829Z,1012.82
2018-07-15T10:08:24.840Z,1012.83
2018-07-15T10:09:24.864Z,1012.82
2018-07-15T10:10:24.912Z,1012.81
2018-07-15T10:11:24.915Z,1012.81
2018-07-15T10:12:24.939Z,1012.81
2018-07-15T10:13:24.969Z,1012.74
2018-07-15T10:14:24.995Z,1012.78
2018-07-15T10:15:25.019Z,1012.82
2018-07-15T10:16:25.044Z,1012.76
2018-07-15T10:17:25.072Z,1012.77
2018-07-15T10:18:25.100Z,1012.77
2018-07-15T10:19:25.128Z,1012.78
2018-07-15T10:20:25.150Z,1012.80
2018-07-15T10:21:25.177Z,1012.74
2018-07-15T10:22:25.206Z,1012.78
2018-07-15T10:23:25.228Z,1012.76
2018-07-15T10:24:25.263Z,1012.74
2018-07-15T10:25:25.281Z,1012.67
2018-07-15T10:26:25.311Z,1012.73
2018-07-15T10:27:25.335Z,1012.73
2018-07-15T10:28:25.361Z,1012.72
2018-07-15T10:29:25.386Z,1012.69
2018-07-15T10:30:25.416Z,1012.71
2018-07-15T10:31:25.443Z,1012.69
2018-07-15T10:32:25.469Z,1012.71
2018-07-15T10:33:25.492Z,1012.68
2018-07-15T10:34:25.521Z,1012.62
2018-07-15T10:35:25.548Z,1012.58
2018-07-15T10:36:25.573Z,1012.60
2018-07-15T10:37:25.600Z,1012.62
2018-07-15T10:38:25.624Z,1012.59
2018-07-15T10:39:25.653Z,1012.62
2018-07-15T10:40:25.679Z,1012.60
2018-07-15T10:41:25.706Z,1012.54
2018-07-15T10:42:25.731Z,1012.58
2018-07-15T10:43:25.757Z,1012.54
2018-07-15T10:44:25.793Z,1012.56
2018-07-15T10:45:25.813Z,1012.60
2018-07-15T10:46:25.836Z,1012.57
2018-07-15T10:47:25.868Z,1012.52
2018-07-15T10:48:25.891Z,1012.54
2018-07-15T10:49:25.915Z,1012.52
2018-07-15T10:50:25.943Z,1012.50
2018-07-15T10:51:25.970Z,1012.49
2018-07-15T10:52:25.997Z,1012.47
2018-07-15T10:53:26.023Z,1012.44
2018-07-15T10:54:26.048Z,1012.53
2018-07-15T10:55:26.078Z,1012.47
2018-07-15T10:56:26.103Z,1012.49
2018-07-15T10:57:26.131Z,1012.50
2018-07-15T10:58:26.155Z,1012.45
2018-07-15T10:59:26.184Z,1012.46
2018-07-15T11:00:26.207Z,1012.44
2018-07-15T11:01:26.236Z,1012.39
2018-07-15T11:02:26.263Z,1012.41
2018-07-15T11:03:26.290Z,1012.38
2018-07-15T11:04:26.314Z,1012.39
2018-07-15T11:05:26.345Z,1012.43
2018-07-15T11:06:26.461Z,1012.39
2018-07-15T11:07:26.398Z,1012.35
2018-07-15T11:08:26.424Z,1012.37
2018-07-15T11:09:26.455Z,1012.38
2018-07-15T11:10:26.480Z,1012.39
2018-07-15T11:11:26.503Z,1012.37
2018-07-15T11:12:26.530Z,1012.35
2018-07-15T11:13:26.615Z,1012.34
2018-07-15T11:14:26.585Z,1012.35
2018-07-15T11:15:26.612Z,1012.36
2018-07-15T11:16:26.709Z,1012.32
2018-07-15T11:17:26.666Z,1012.30
2018-07-15T11:18:26.689Z,1012.31
2018-07-15T11:19:26.718Z,1012.32
2018-07-15T11:20:26.744Z,1012.31
2018-07-15T11:21:26.769Z,1012.31
2018-07-15T11:22:26.823Z,1012.34
2018-07-15T11:23:26.827Z,1012.31
2018-07-15T11:24:26.850Z,1012.25
2018-07-15T11:25:26.876Z,1012.22
2018-07-15T11:26:26.904Z,1012.27
2018-07-15T11:27:26.935Z,1012.23
2018-07-15T11:28:26.960Z,1012.19
2018-07-15T11:29:26.986Z,1012.25
2018-07-15T11:30:27.014Z,1012.20
2018-07-15T11:31:27.112Z,1012.25
2018-07-15T11:32:27.066Z,1012.25
2018-07-15T11:33:27.094Z,1012.25
2018-07-15T11:34:27.121Z,1012.23
2018-07-15T11:35:27.148Z,1012.22
2018-07-15T11:36:27.173Z,1012.22
2018-07-15T11:37:27.200Z,1012.19
2018-07-15T11:38:27.227Z,1012.17
2018-07-15T11:39:27.264Z,1012.11
2018-07-15T11:40:27.283Z,1012.17
2018-07-15T11:41:27.308Z,1012.10
2018-07-15T11:42:27.337Z,1012.11
2018-07-15T11:43:27.363Z,1012.09
2018-07-15T11:44:27.387Z,1012.10
2018-07-15T11:45:27.416Z,1012.14
2018-07-15T11:46:27.442Z,1012.07
2018-07-15T11:47:27.468Z,1012.08
2018-07-15T11:48:27.499Z,1012.06
2018-07-15T11:49:27.525Z,1012.06
2018-07-15T11:50:27.553Z,1012.07
2018-07-15T11:51:27.577Z,1012.13
2018-07-15T11:52:27.604Z,1012.11
2018-07-15T11:53:27.630Z,1012.06
2018-07-15T11:54:27.687Z,1012.02
2018-07-15T11:55:27.686Z,1011.94
2018-07-15T11:56:27.712Z,1011.98
2018-07-15T11:57:27.741Z,1011.94
2018-07-15T11:58:27.767Z,1011.95
2018-07-15T11:59:27.792Z,1011.99
2018-07-15T12:00:27.819Z,1011.98
2018-07-15T12:01:27.861Z,1012.01
2018-07-15T12:02:27.874Z,1012.00
2018-07-15T12:03:27.904Z,1011.97
2018-07-15T12:04:27.929Z,1011.97
2018-07-15T12:05:27.958Z,1011.99